Time;durP1;ratioP1;P1;durP2;ratioP2;P2;SDS_P1;SDS_P2;PMS_P1;PMS_P2;Temp;Humidity;BMP_temperature;BMP_pressure;BME280_temperature;BME280_humidity;BME280_pressure;Samples;Min_cycle;Max_cycle;Signal;HPM_P1;HPM_P2
2021/05/31 00:01:44;;;;;;;3.27;2.43;;;6.90;99.90;;;;;;5013523;28;20054;-71
2021/05/31 00:04:10;;;;;;;3.47;2.47;;;6.90;99.90;;;;;;5013704;28;20050;-72
2021/05/31 00:06:42;;;;;;;3.27;2.40;;;6.80;99.90;;;;;;5012643;28;20510;-71
2021/05/31 00:09:08;;;;;;;3.00;2.70;;;6.80;99.90;;;;;;5007269;28;20053;-71
2021/05/31 00:11:34;;;;;;;4.67;2.50;;;6.70;99.90;;;;;;5010785;28;20054;-70
2021/05/31 00:14:01;;;;;;;4.37;2.63;;;6.60;99.90;;;;;;5009020;28;20049;-71
2021/05/31 00:16:27;;;;;;;5.63;2.87;;;6.60;99.90;;;;;;5009458;28;20049;-71
2021/05/31 00:18:53;;;;;;;5.27;3.57;;;6.50;99.90;;;;;;5013070;28;20052;-71
2021/05/31 00:21:19;;;;;;;3.47;2.87;;;6.60;99.90;;;;;;5012683;28;20057;-71
2021/05/31 00:23:46;;;;;;;2.90;2.70;;;6.60;99.90;;;;;;5013040;28;20046;-70
2021/05/31 00:26:16;;;;;;;3.63;2.77;;;6.40;99.90;;;;;;5010995;28;20096;-71
2021/05/31 00:28:42;;;;;;;2.57;2.37;;;6.40;99.90;;;;;;5012864;28;20042;-71
2021/05/31 00:31:08;;;;;;;7.90;3.37;;;6.30;99.90;;;;;;5013094;28;20054;-71
2021/05/31 00:33:35;;;;;;;4.53;3.00;;;6.30;99.90;;;;;;5011724;28;20056;-71
2021/05/31 00:36:01;;;;;;;4.37;2.83;;;6.30;99.90;;;;;;4993022;28;20414;-71
2021/05/31 00:38:27;;;;;;;4.47;3.13;;;6.30;99.90;;;;;;4992862;28;20038;-71
2021/05/31 00:40:54;;;;;;;4.23;2.83;;;6.30;99.90;;;;;;4993345;28;20093;-71
2021/05/31 00:43:20;;;;;;;6.13;3.23;;;6.30;99.90;;;;;;4993334;28;20410;-72
2021/05/31 00:45:47;;;;;;;4.80;3.00;;;6.30;99.90;;;;;;5004212;28;20489;-71
2021/05/31 00:48:15;;;;;;;3.20;2.57;;;6.30;99.90;;;;;;5012520;28;20070;-69
2021/05/31 00:50:43;;;;;;;6.80;2.90;;;6.30;99.90;;;;;;5012778;28;20510;-71
2021/05/31 00:53:09;;;;;;;3.47;2.63;;;6.30;99.90;;;;;;5012894;28;20052;-71
2021/05/31 00:55:35;;;;;;;3.47;2.90;;;6.30;99.90;;;;;;5013201;28;20119;-71
2021/05/31 00:58:04;;;;;;;4.87;3.17;;;6.20;99.90;;;;;;5013019;28;20065;-71
2021/05/31 01:00:30;;;;;;;5.87;3.23;;;6.20;99.90;;;;;;5012911;28;20049;-71
2021/05/31 01:02:59;;;;;;;4.90;3.27;;;6.20;99.90;;;;;;5013078;28;20042;-72
2021/05/31 01:05:26;;;;;;;5.20;2.73;;;6.20;99.90;;;;;;5012922;28;20038;-70
2021/05/31 01:07:59;;;;;;;7.87;3.50;;;6.20;99.90;;;;;;4999380;28;20070;-70
2021/05/31 01:10:32;;;;;;;2.93;2.47;;;6.20;99.90;;;;;;4998681;28;20379;-71
2021/05/31 01:13:04;;;;;;;5.67;3.23;;;6.20;99.90;;;;;;4997593;28;20054;-71
2021/05/31 01:15:33;;;;;;;5.97;3.07;;;6.20;99.90;;;;;;5001062;28;20050;-71
2021/05/31 01:18:04;;;;;;;4.87;3.67;;;6.20;99.90;;;;;;5017199;28;20053;-71
2021/05/31 01:20:57;;;;;;;3.33;3.03;;;6.10;99.90;;;;;;5012790;28;20490;-71
2021/05/31 01:23:28;;;;;;;5.00;3.30;;;6.10;99.90;;;;;;5015802;28;20046;-71
2021/05/31 01:26:02;;;;;;;3.83;2.95;;;6.10;99.90;;;;;;5016560;28;20057;-71
2021/05/31 01:28:52;;;;;;;3.70;2.90;;;6.10;99.90;;;;;;5015641;28;20056;-71
2021/05/31 01:31:23;;;;;;;6.87;4.37;;;6.20;99.90;;;;;;5002337;28;20046;-71
2021/05/31 01:33:54;;;;;;;4.90;2.97;;;6.20;99.90;;;;;;5000109;28;20054;-71
2021/05/31 01:36:22;;;;;;;4.27;3.67;;;6.20;99.90;;;;;;4996099;28;20054;-71
2021/05/31 01:38:50;;;;;;;5.87;3.17;;;6.20;99.90;;;;;;4996647;28;20058;-71
2021/05/31 01:41:18;;;;;;;6.37;2.80;;;6.20;99.90;;;;;;4997114;28;20399;-72
2021/05/31 01:43:45;;;;;;;3.23;2.73;;;6.30;99.90;;;;;;5003201;28;20042;-71
2021/05/31 01:46:13;;;;;;;3.73;2.80;;;6.30;99.90;;;;;;5015785;28;20045;-71
2021/05/31 01:48:40;;;;;;;4.17;2.80;;;6.10;99.90;;;;;;5000483;28;20042;-71
2021/05/31 01:51:07;;;;;;;2.87;2.57;;;6.10;99.90;;;;;;5010194;28;20046;-71
2021/05/31 01:53:36;;;;;;;3.40;2.63;;;6.00;99.90;;;;;;5016125;28;20481;-71
2021/05/31 01:56:03;;;;;;;5.47;3.00;;;5.90;99.90;;;;;;5015709;28;20045;-71
2021/05/31 01:58:29;;;;;;;6.23;3.33;;;5.90;99.90;;;;;;5015494;28;20046;-71
2021/05/31 02:00:59;;;;;;;5.37;3.60;;;5.90;99.90;;;;;;5015703;28;20050;-72
2021/05/31 02:03:28;;;;;;;5.50;2.77;;;5.80;99.90;;;;;;5015292;28;20046;-70
2021/05/31 02:05:55;;;;;;;4.73;3.30;;;5.80;99.90;;;;;;5015524;28;20050;-71
2021/05/31 02:08:21;;;;;;;5.90;4.03;;;5.70;99.90;;;;;;5015470;28;20052;-71
2021/05/31 02:10:56;;;;;;;6.10;3.30;;;5.60;99.90;;;;;;5015924;28;20425;-71
2021/05/31 02:13:28;;;;;;;4.47;3.40;;;5.60;99.90;;;;;;5015893;28;20056;-71
2021/05/31 02:15:58;;;;;;;5.28;3.47;;;5.50;99.90;;;;;;5011731;28;20119;-71
2021/05/31 02:18:26;;;;;;;19.63;12.27;;;5.50;99.90;;;;;;5014999;28;20057;-72
2021/05/31 02:20:57;;;;;;;10.30;5.67;;;5.60;99.90;;;;;;5015445;28;20057;-72
2021/05/31 02:23:24;;;;;;;3.60;2.70;;;5.60;99.90;;;;;;5015696;28;20482;-72
2021/05/31 02:25:52;;;;;;;4.60;2.80;;;5.60;99.90;;;;;;5015137;28;20045;-71
2021/05/31 02:28:18;;;;;;;6.87;3.10;;;5.60;99.90;;;;;;5015517;28;20085;-72
2021/05/31 02:30:44;;;;;;;4.03;2.70;;;5.70;99.90;;;;;;4998528;28;20050;-71
2021/05/31 02:33:10;;;;;;;4.77;3.43;;;5.60;99.90;;;;;;5009543;28;20042;-72
2021/05/31 02:35:39;;;;;;;7.23;3.90;;;5.60;99.90;;;;;;5014141;28;20046;-70
2021/05/31 02:38:06;;;;;;;4.83;3.37;;;5.50;99.90;;;;;;4998098;28;20050;-70
2021/05/31 02:40:34;;;;;;;8.23;3.60;;;5.50;99.90;;;;;;5010603;28;20049;-71
2021/05/31 02:43:03;;;;;;;4.07;3.50;;;5.40;99.90;;;;;;5002515;28;20466;-71
2021/05/31 02:45:30;;;;;;;4.13;3.10;;;5.40;99.90;;;;;;5014538;28;20045;-71
2021/05/31 02:47:58;;;;;;;4.33;3.43;;;5.40;99.90;;;;;;5014494;28;20100;-71
2021/05/31 02:50:26;;;;;;;4.70;3.03;;;5.40;99.90;;;;;;5014863;28;20046;-71
2021/05/31 02:52:53;;;;;;;5.77;3.13;;;5.20;99.90;;;;;;5014977;28;20049;-71
2021/05/31 02:55:22;;;;;;;7.63;3.43;;;5.40;99.90;;;;;;5014684;28;20053;-71
2021/05/31 02:57:49;;;;;;;4.97;3.53;;;5.40;99.90;;;;;;4995094;28;20073;-72
2021/05/31 03:00:18;;;;;;;4.20;3.37;;;5.40;99.90;;;;;;4995536;28;20053;-71
2021/05/31 03:02:44;;;;;;;7.77;3.57;;;5.40;99.90;;;;;;4995367;28;20050;-71
2021/05/31 03:05:13;;;;;;;7.30;3.57;;;5.40;99.90;;;;;;4995349;28;20046;-71
2021/05/31 03:07:39;;;;;;;5.50;3.73;;;5.40;99.90;;;;;;4994519;28;20092;-71
2021/05/31 03:10:08;;;;;;;5.67;3.73;;;5.40;99.90;;;;;;5013556;28;20108;-71
2021/05/31 03:12:35;;;;;;;8.00;3.70;;;5.30;99.90;;;;;;5014769;28;20475;-70
2021/05/31 03:15:01;;;;;;;5.03;3.60;;;5.40;99.90;;;;;;5013655;28;20477;-71
2021/05/31 03:17:28;;;;;;;6.83;3.63;;;5.50;99.90;;;;;;5002695;28;20050;-70
2021/05/31 03:19:54;;;;;;;7.27;4.23;;;5.60;99.90;;;;;;4994936;28;20051;-71
2021/05/31 03:22:20;;;;;;;5.10;3.43;;;5.70;99.90;;;;;;4994793;28;20057;-72
2021/05/31 03:24:46;;;;;;;6.33;3.80;;;5.60;99.90;;;;;;4999319;28;20058;-71
2021/05/31 03:27:14;;;;;;;6.37;3.87;;;5.60;99.90;;;;;;5013745;28;20058;-71
2021/05/31 03:29:40;;;;;;;6.17;4.27;;;5.60;99.90;;;;;;5014109;28;20057;-71
2021/05/31 03:32:06;;;;;;;5.40;2.80;;;5.60;99.90;;;;;;5014519;28;20371;-71
2021/05/31 03:34:32;;;;;;;7.23;3.30;;;5.70;99.90;;;;;;4982075;28;20042;-75
2021/05/31 03:36:58;;;;;;;4.07;2.83;;;5.70;99.90;;;;;;5012352;28;20494;-71
2021/05/31 03:39:25;;;;;;;5.20;3.53;;;6.00;99.90;;;;;;5012281;28;20049;-70
2021/05/31 03:41:51;;;;;;;4.43;3.50;;;6.10;99.90;;;;;;5012466;28;20383;-72
2021/05/31 03:44:19;;;;;;;6.00;3.20;;;6.10;99.90;;;;;;5013065;28;20050;-72
2021/05/31 03:46:45;;;;;;;4.53;2.83;;;6.20;99.90;;;;;;5012161;28;20075;-75
2021/05/31 03:49:11;;;;;;;7.63;3.80;;;6.20;99.90;;;;;;5011233;28;20478;-73
2021/05/31 03:51:37;;;;;;;6.27;3.20;;;6.30;99.90;;;;;;5005138;28;20204;-74
2021/05/31 03:54:04;;;;;;;4.33;2.97;;;6.40;99.90;;;;;;5012263;28;20049;-70
2021/05/31 03:56:30;;;;;;;3.67;2.43;;;6.40;99.90;;;;;;4996174;28;20073;-72
2021/05/31 03:58:57;;;;;;;3.77;2.57;;;6.50;99.90;;;;;;4993226;28;20510;-72
2021/05/31 04:01:24;;;;;;;7.30;4.00;;;6.50;99.90;;;;;;5002406;28;20502;-74
2021/05/31 04:03:52;;;;;;;4.37;3.10;;;6.60;99.90;;;;;;5011835;28;20483;-73
2021/05/31 04:06:25;;;;;;;9.60;4.13;;;6.70;99.90;;;;;;5012537;28;20076;-73
2021/05/31 04:11:36;;;;;;;5.87;2.97;;;6.90;99.90;;;;;;5011392;28;20096;-76
2021/05/31 04:14:08;;;;;;;4.23;3.07;;;7.00;99.90;;;;;;5012514;28;20441;-75
2021/05/31 04:16:38;;;;;;;8.63;3.53;;;7.20;99.90;;;;;;5012927;28;20115;-75
2021/05/31 04:19:06;;;;;;;5.33;3.30;;;7.30;99.90;;;;;;5012495;28;20042;-72
2021/05/31 04:21:33;;;;;;;3.40;3.07;;;7.40;99.90;;;;;;5012780;28;20057;-73
2021/05/31 04:24:03;;;;;;;3.63;2.97;;;7.50;99.90;;;;;;5012282;28;20049;-75
2021/05/31 04:26:32;;;;;;;3.67;3.03;;;7.60;99.90;;;;;;5011807;28;20409;-74
2021/05/31 04:29:06;;;;;;;4.03;2.77;;;7.60;99.90;;;;;;5012410;28;20050;-74
2021/05/31 04:31:33;;;;;;;3.00;2.70;;;7.70;99.90;;;;;;5012244;28;20058;-73
2021/05/31 04:34:01;;;;;;;4.80;3.30;;;7.80;99.90;;;;;;5010164;28;20046;-71
2021/05/31 04:36:28;;;;;;;5.63;3.40;;;7.90;99.90;;;;;;5012131;28;20402;-73
2021/05/31 04:38:54;;;;;;;5.40;3.17;;;8.00;99.90;;;;;;5012369;28;20057;-74
2021/05/31 04:41:20;;;;;;;4.77;3.30;;;8.10;99.90;;;;;;5015095;28;20080;-74
2021/05/31 04:43:46;;;;;;;3.97;3.27;;;8.20;99.90;;;;;;5017560;28;20046;-72
2021/05/31 04:46:13;;;;;;;5.37;3.40;;;8.30;99.90;;;;;;5016157;28;20050;-71
2021/05/31 04:48:39;;;;;;;6.80;3.67;;;8.30;99.90;;;;;;5014747;28;20046;-72
2021/05/31 04:51:07;;;;;;;3.63;3.33;;;8.50;99.90;;;;;;5016192;28;20474;-71
2021/05/31 04:53:34;;;;;;;4.27;2.80;;;8.60;99.90;;;;;;5016046;28;20053;-71
2021/05/31 04:56:02;;;;;;;4.60;2.93;;;8.60;99.90;;;;;;5015957;28;20053;-71
2021/05/31 04:58:28;;;;;;;4.70;3.23;;;8.70;99.90;;;;;;5016263;28;20046;-70
2021/05/31 05:00:54;;;;;;;5.73;3.03;;;8.80;99.90;;;;;;5015899;28;20042;-71
2021/05/31 05:03:20;;;;;;;3.70;2.53;;;8.90;99.90;;;;;;5014944;28;20049;-72
2021/05/31 05:05:47;;;;;;;4.33;3.13;;;9.00;99.90;;;;;;5015725;28;20057;-71
2021/05/31 05:08:15;;;;;;;4.03;2.80;;;9.20;99.90;;;;;;5018278;28;20057;-73
2021/05/31 05:10:43;;;;;;;5.20;3.37;;;9.30;99.90;;;;;;5015907;28;20067;-74
2021/05/31 05:13:11;;;;;;;3.33;2.87;;;9.50;99.90;;;;;;4997556;28;20497;-75
2021/05/31 05:15:37;;;;;;;4.72;3.08;;;9.60;99.90;;;;;;4969514;28;20050;-75
2021/05/31 05:18:04;;;;;;;4.17;2.80;;;9.80;99.90;;;;;;5011616;28;20085;-72
2021/05/31 05:20:32;;;;;;;3.87;3.17;;;9.90;99.90;;;;;;5016884;28;20042;-73
2021/05/31 05:22:59;;;;;;;6.57;3.30;;;10.10;99.90;;;;;;5005020;28;20046;-71
2021/05/31 05:25:27;;;;;;;2.78;2.58;;;10.20;99.90;;;;;;4996460;28;20054;-74
2021/05/31 05:27:54;;;;;;;5.20;2.92;;;10.30;99.90;;;;;;5012193;28;20084;-76
2021/05/31 05:30:22;;;;;;;5.10;2.97;;;10.50;99.90;;;;;;5016935;28;20042;-74
2021/05/31 05:32:49;;;;;;;6.95;3.53;;;10.60;99.90;;;;;;5015675;28;20220;-72
2021/05/31 05:35:21;;;;;;;5.65;3.08;;;10.70;99.90;;;;;;5015092;28;20092;-70
2021/05/31 05:38:05;;;;;;;5.03;3.45;;;10.80;99.90;;;;;;5014970;28;20125;-72
2021/05/31 05:43:31;;;;;;;5.82;3.10;;;11.10;99.90;;;;;;5014534;28;20057;-75
2021/05/31 05:46:02;;;;;;;4.10;3.13;;;11.20;99.90;;;;;;5011258;28;20068;-72
2021/05/31 05:48:29;;;;;;;5.30;2.85;;;11.30;99.90;;;;;;5006475;28;20517;-74
2021/05/31 05:51:05;;;;;;;6.57;3.60;;;11.40;99.90;;;;;;5015000;28;20539;-75
2021/05/31 05:53:32;;;;;;;5.25;3.28;;;11.70;99.90;;;;;;4996167;28;20073;-71
2021/05/31 05:56:00;;;;;;;3.45;2.90;;;11.90;99.90;;;;;;5000970;28;20042;-74
2021/05/31 05:58:35;;;;;;;7.85;4.00;;;12.10;99.90;;;;;;5014417;28;20575;-75
2021/05/31 06:01:02;;;;;;;7.00;3.50;;;12.30;99.90;;;;;;5015719;28;20053;-74
2021/05/31 06:03:28;;;;;;;4.32;3.10;;;12.60;99.90;;;;;;5013821;28;20057;-74
2021/05/31 06:05:59;;;;;;;5.65;3.10;;;13.10;99.90;;;;;;5013388;28;20099;-74
2021/05/31 06:08:25;;;;;;;5.40;3.70;;;13.30;99.90;;;;;;5010826;28;20050;-74
2021/05/31 06:10:54;;;;;;;4.43;3.25;;;13.60;99.90;;;;;;5014852;28;20308;-76
2021/05/31 06:13:33;;;;;;;6.60;3.20;;;14.00;99.90;;;;;;5016564;28;20052;-76
2021/05/31 06:16:01;;;;;;;5.28;3.90;;;14.20;99.90;;;;;;5014818;28;20065;-74
2021/05/31 06:18:35;;;;;;;4.20;3.10;;;14.50;99.90;;;;;;5014045;28;20473;-74
2021/05/31 06:21:01;;;;;;;3.78;3.38;;;14.70;99.90;;;;;;4995395;28;20050;-73
2021/05/31 06:23:38;;;;;;;4.45;3.17;;;14.90;99.90;;;;;;5004843;28;20050;-73
2021/05/31 06:26:12;;;;;;;4.53;3.33;;;15.00;99.90;;;;;;5012482;28;20125;-74
2021/05/31 06:28:40;;;;;;;3.42;2.97;;;15.40;99.90;;;;;;5005622;28;20412;-75
2021/05/31 06:31:10;;;;;;;5.68;2.63;;;15.90;99.90;;;;;;5014601;28;20478;-77
2021/05/31 06:33:39;;;;;;;5.05;2.97;;;15.80;98.70;;;;;;5014951;28;20107;-78
2021/05/31 06:36:08;;;;;;;5.82;3.55;;;16.10;98.20;;;;;;5014226;28;20473;-75
2021/05/31 06:38:37;;;;;;;5.50;3.78;;;16.50;96.90;;;;;;5014336;28;20498;-73
2021/05/31 06:41:04;;;;;;;4.10;3.10;;;16.30;94.80;;;;;;5011457;28;20494;-77
2021/05/31 06:43:30;;;;;;;5.63;3.40;;;16.70;94.60;;;;;;5016334;28;20045;-75
2021/05/31 06:46:01;;;;;;;4.90;3.30;;;17.10;93.40;;;;;;5013893;28;20118;-74
2021/05/31 06:48:28;;;;;;;4.38;3.85;;;17.40;92.50;;;;;;5013978;28;20116;-74
2021/05/31 06:51:01;;;;;;;3.58;3.28;;;17.50;91.10;;;;;;5013854;28;20425;-72
2021/05/31 06:53:27;;;;;;;4.30;3.05;;;17.40;89.60;;;;;;5008884;28;20046;-75
2021/05/31 06:55:55;;;;;;;4.97;2.80;;;17.80;89.60;;;;;;4994569;28;20077;-74
2021/05/31 06:58:21;;;;;;;3.28;2.72;;;18.20;90.00;;;;;;5004003;28;20054;-77
2021/05/31 07:00:48;;;;;;;3.85;3.28;;;18.90;86.40;;;;;;5015078;28;20045;-72
2021/05/31 07:03:15;;;;;;;4.57;3.10;;;18.50;81.00;;;;;;5013338;28;20049;-73
2021/05/31 07:05:41;;;;;;;3.85;2.58;;;18.80;81.50;;;;;;5013339;28;20049;-74
2021/05/31 07:08:07;;;;;;;4.05;2.75;;;18.80;80.60;;;;;;5009261;28;20097;-74
2021/05/31 07:10:35;;;;;;;5.47;4.00;;;19.30;80.10;;;;;;4996998;28;20069;-74
2021/05/31 07:13:02;;;;;;;4.95;3.70;;;19.60;80.20;;;;;;5014471;28;20054;-75
2021/05/31 07:15:29;;;;;;;4.90;3.20;;;20.20;76.80;;;;;;5013705;28;20476;-73
2021/05/31 07:17:55;;;;;;;4.35;3.17;;;19.90;73.40;;;;;;5013180;28;20160;-74
2021/05/31 07:20:23;;;;;;;3.45;2.50;;;20.00;74.10;;;;;;5007561;28;20100;-74
2021/05/31 07:22:50;;;;;;;6.05;3.20;;;20.60;73.80;;;;;;5013621;28;20143;-72
2021/05/31 07:25:17;;;;;;;3.38;2.83;;;21.10;70.70;;;;;;5013543;28;20042;-72
2021/05/31 07:27:44;;;;;;;4.30;3.40;;;21.20;69.60;;;;;;5005647;28;20409;-73
2021/05/31 07:30:12;;;;;;;4.90;3.38;;;21.10;69.80;;;;;;5006746;28;20053;-74
2021/05/31 07:32:39;;;;;;;3.78;3.03;;;21.00;68.10;;;;;;5006987;28;20050;-71
2021/05/31 07:35:12;;;;;;;5.78;3.67;;;21.30;68.50;;;;;;5014258;28;20119;-77
2021/05/31 07:37:45;;;;;;;3.50;2.70;;;21.50;64.50;;;;;;5019500;28;20498;-78
2021/05/31 07:40:14;;;;;;;5.13;2.70;;;21.50;67.00;;;;;;5017997;28;20046;-75
2021/05/31 07:42:45;;;;;;;3.03;2.78;;;22.10;65.00;;;;;;5013203;28;20064;-74
2021/05/31 07:45:14;;;;;;;6.00;2.72;;;22.40;62.40;;;;;;5012450;28;20136;-74
2021/05/31 07:47:40;;;;;;;4.25;2.70;;;22.40;59.40;;;;;;5012257;28;20167;-76
2021/05/31 07:50:09;;;;;;;3.60;3.30;;;22.70;61.10;;;;;;5003937;28;20054;-74
2021/05/31 07:52:36;;;;;;;6.50;4.00;;;23.00;59.90;;;;;;5009453;28;20078;-75
2021/05/31 07:55:09;;;;;;;2.70;2.38;;;22.90;58.40;;;;;;4995308;28;20042;-74
2021/05/31 07:57:36;;;;;;;5.85;3.20;;;23.20;58.10;;;;;;5002762;28;20065;-72
2021/05/31 08:00:04;;;;;;;5.05;2.63;;;23.30;56.60;;;;;;5012932;28;20050;-74
2021/05/31 08:02:40;;;;;;;4.68;2.95;;;23.70;57.30;;;;;;5012423;28;20049;-74
2021/05/31 08:05:08;;;;;;;4.03;2.97;;;24.20;56.10;;;;;;5010606;28;20449;-75
2021/05/31 08:07:34;;;;;;;3.92;3.03;;;24.00;54.20;;;;;;5004261;28;20046;-74
2021/05/31 08:10:00;;;;;;;3.53;2.70;;;23.40;54.30;;;;;;5007225;28;20069;-75
2021/05/31 08:12:28;;;;;;;6.57;2.72;;;23.30;55.80;;;;;;5012496;28;20123;-75
2021/05/31 08:14:55;;;;;;;3.55;2.60;;;23.80;56.60;;;;;;5016078;28;20050;-75
2021/05/31 08:17:24;;;;;;;3.25;2.97;;;24.00;55.30;;;;;;5013330;28;20053;-75
2021/05/31 08:19:50;;;;;;;4.80;2.40;;;24.00;54.30;;;;;;5012603;28;20053;-73
2021/05/31 08:22:16;;;;;;;3.75;2.58;;;22.90;54.30;;;;;;5017107;28;20068;-74
2021/05/31 08:24:42;;;;;;;3.55;3.25;;;23.40;55.30;;;;;;5012485;28;20120;-71
2021/05/31 08:27:23;;;;;;;4.03;2.22;;;24.00;54.20;;;;;;5012497;28;20053;-75
2021/05/31 08:29:50;;;;;;;2.90;2.00;;;24.80;54.20;;;;;;5013537;28;20065;-70
2021/05/31 08:32:20;;;;;;;2.58;2.38;;;24.90;52.00;;;;;;5012757;28;20045;-75
2021/05/31 08:34:46;;;;;;;4.55;2.70;;;24.80;51.70;;;;;;5012585;28;20084;-76
2021/05/31 08:37:13;;;;;;;2.45;2.22;;;25.10;51.40;;;;;;5011981;28;20643;-73
2021/05/31 08:39:42;;;;;;;3.05;2.65;;;24.40;50.00;;;;;;5012210;28;20053;-72
2021/05/31 08:42:09;;;;;;;4.15;3.70;;;24.90;51.80;;;;;;5012654;28;20060;-74
2021/05/31 08:44:38;;;;;;;4.57;3.78;;;25.60;49.60;;;;;;5014181;28;20068;-74
2021/05/31 08:47:07;;;;;;;3.85;2.60;;;25.90;48.20;;;;;;5012054;28;20050;-74
2021/05/31 08:49:35;;;;;;;2.17;1.90;;;26.30;48.30;;;;;;5012529;28;20417;-73
2021/05/31 08:52:02;;;;;;;3.38;1.98;;;26.40;47.10;;;;;;5011879;28;20056;-71
2021/05/31 08:54:28;;;;;;;1.88;1.67;;;26.60;46.50;;;;;;5012554;28;20053;-71
2021/05/31 08:56:54;;;;;;;2.50;1.85;;;26.50;44.30;;;;;;5011960;28;20414;-73
2021/05/31 08:59:21;;;;;;;1.33;1.25;;;25.40;46.50;;;;;;5012681;28;20050;-74
2021/05/31 09:01:47;;;;;;;2.58;1.73;;;25.50;46.10;;;;;;5012502;28;20053;-73
2021/05/31 09:04:15;;;;;;;1.50;1.40;;;26.20;46.50;;;;;;5012322;28;20041;-73
2021/05/31 09:06:41;;;;;;;1.67;1.58;;;26.80;44.90;;;;;;5012393;28;20092;-70
2021/05/31 09:09:08;;;;;;;1.70;1.60;;;27.30;43.60;;;;;;5011886;28;20050;-71
2021/05/31 09:11:35;;;;;;;2.20;1.77;;;27.40;44.10;;;;;;5009664;28;20045;-74
2021/05/31 09:16:43;;;;;;;1.95;1.70;;;27.60;42.00;;;;;;5017560;28;20049;-76
2021/05/31 09:19:12;;;;;;;8.88;2.38;;;26.70;40.30;;;;;;5018342;28;20053;-76
2021/05/31 09:21:44;;;;;;;6.22;1.52;;;26.50;42.10;;;;;;5016283;28;20057;-73
2021/05/31 09:24:12;;;;;;;3.90;1.52;;;26.10;41.70;;;;;;5012203;28;20053;-69
2021/05/31 09:26:47;;;;;;;1.98;1.60;;;26.80;45.30;;;;;;5008094;28;20046;-71
2021/05/31 09:29:17;;;;;;;4.40;1.33;;;27.90;42.20;;;;;;4995645;28;20057;-71
2021/05/31 09:31:44;;;;;;;2.17;1.58;;;27.60;38.90;;;;;;4996673;28;20069;-70
2021/05/31 09:34:12;;;;;;;2.25;1.60;;;27.80;40.50;;;;;;5009070;28;20052;-70
2021/05/31 09:36:49;;;;;;;1.50;1.40;;;27.30;43.00;;;;;;5014796;28;20413;-71
2021/05/31 09:39:16;;;;;;;2.97;2.13;;;27.40;42.60;;;;;;5015105;28;20104;-70
2021/05/31 09:41:42;;;;;;;4.13;2.00;;;27.30;42.00;;;;;;5015194;28;20046;-70
2021/05/31 09:44:09;;;;;;;2.85;1.45;;;27.20;42.30;;;;;;5000680;28;20066;-71
2021/05/31 09:46:38;;;;;;;2.28;1.90;;;27.00;43.40;;;;;;5006746;28;20445;-72
2021/05/31 09:49:15;;;;;;;2.05;1.60;;;27.90;43.70;;;;;;5014481;28;20048;-71
2021/05/31 09:52:01;;;;;;;2.45;2.05;;;28.10;42.50;;;;;;5015234;28;20050;-70
2021/05/31 09:54:32;;;;;;;1.88;1.50;;;28.30;40.80;;;;;;5014646;28;20469;-72
2021/05/31 09:57:00;;;;;;;2.78;1.92;;;26.60;39.80;;;;;;5011240;28;20046;-71
2021/05/31 09:59:30;;;;;;;2.55;2.30;;;26.60;42.00;;;;;;5011092;28;20042;-73
2021/05/31 10:02:02;;;;;;;3.40;1.67;;;26.40;41.70;;;;;;5016130;28;20050;-74
2021/05/31 10:04:48;;;;;;;3.50;1.88;;;26.50;42.30;;;;;;4996881;28;20410;-73
2021/05/31 10:07:25;;;;;;;1.70;1.60;;;27.00;42.50;;;;;;4996488;28;20145;-74
2021/05/31 10:09:53;;;;;;;1.95;1.40;;;26.90;42.10;;;;;;4996617;28;20050;-74
2021/05/31 10:12:20;;;;;;;1.95;1.70;;;26.70;42.10;;;;;;4996963;28;20039;-74
2021/05/31 10:14:49;;;;;;;6.18;3.38;;;26.80;41.80;;;;;;5010726;28;20100;-74
2021/05/31 10:17:15;;;;;;;3.45;2.70;;;26.40;42.00;;;;;;5013331;28;20042;-74
2021/05/31 10:19:42;;;;;;;2.08;1.88;;;26.30;41.30;;;;;;4996716;28;20057;-74
2021/05/31 10:22:10;;;;;;;2.20;1.67;;;26.40;41.20;;;;;;4996976;28;20134;-75
2021/05/31 10:24:38;;;;;;;3.42;1.92;;;27.90;40.90;;;;;;4996827;28;20441;-73
2021/05/31 10:27:08;;;;;;;1.95;1.33;;;28.60;34.70;;;;;;5007823;28;20475;-73
2021/05/31 10:29:41;;;;;;;3.20;1.27;;;29.40;37.40;;;;;;4996894;28;20043;-74
2021/05/31 10:32:09;;;;;;;2.65;1.45;;;29.20;35.60;;;;;;5008941;28;20049;-74
2021/05/31 10:34:54;;;;;;;3.80;1.48;;;29.60;37.00;;;;;;5016199;28;20050;-74
2021/05/31 10:37:24;;;;;;;1.77;1.27;;;28.90;37.50;;;;;;5015376;28;20076;-73
2021/05/31 10:40:08;;;;;;;3.60;3.25;;;29.20;37.60;;;;;;5014448;28;20069;-74
2021/05/31 10:42:42;;;;;;;11.70;3.08;;;29.30;38.90;;;;;;5015385;28;20076;-73
2021/05/31 10:45:28;;;;;;;2.30;1.20;;;30.00;38.40;;;;;;5015517;28;20072;-75
2021/05/31 10:48:00;;;;;;;1.60;1.50;;;30.00;38.30;;;;;;5015453;28;20077;-74
2021/05/31 10:50:28;;;;;;;1.88;1.50;;;30.30;38.00;;;;;;4996521;28;20119;-73
2021/05/31 10:52:56;;;;;;;1.75;1.48;;;31.00;38.80;;;;;;4995804;28;20046;-74
2021/05/31 10:55:38;;;;;;;2.22;2.03;;;31.50;34.00;;;;;;4995664;28;20051;-74
2021/05/31 10:58:16;;;;;;;2.67;1.45;;;30.90;36.00;;;;;;4996516;28;20132;-74
2021/05/31 11:00:51;;;;;;;1.60;1.50;;;30.90;36.40;;;;;;5011352;28;20046;-68
2021/05/31 11:03:18;;;;;;;2.55;1.85;;;30.90;34.90;;;;;;5003836;28;20042;-69
2021/05/31 11:05:44;;;;;;;5.72;3.63;;;30.80;36.70;;;;;;5008632;28;20046;-70
2021/05/31 11:08:10;;;;;;;11.57;8.23;;;30.90;34.80;;;;;;5013523;28;20046;-70
2021/05/31 11:10:37;;;;;;;4.63;4.03;;;30.70;36.90;;;;;;5013548;28;20101;-68
2021/05/31 11:13:14;;;;;;;3.90;2.63;;;30.90;38.40;;;;;;5012872;28;20047;-71
2021/05/31 11:15:41;;;;;;;9.57;6.95;;;31.00;37.00;;;;;;5013307;28;20060;-69
2021/05/31 11:18:08;;;;;;;6.97;5.07;;;31.30;38.50;;;;;;5013199;28;20057;-68
2021/05/31 11:20:34;;;;;;;2.55;2.35;;;31.30;37.20;;;;;;5002808;28;20601;-67
2021/05/31 11:23:02;;;;;;;6.88;5.13;;;31.60;35.70;;;;;;5010331;28;20050;-67
2021/05/31 11:25:30;;;;;;;11.98;8.95;;;31.20;35.80;;;;;;5013353;28;20088;-69
2021/05/31 11:27:59;;;;;;;11.57;8.82;;;31.30;35.90;;;;;;5013379;28;20045;-70
2021/05/31 11:30:28;;;;;;;2.28;2.08;;;31.90;37.00;;;;;;5013235;28;20058;-70
2021/05/31 11:32:55;;;;;;;2.72;2.47;;;31.70;32.80;;;;;;5021372;28;20056;-69
2021/05/31 11:35:22;;;;;;;4.47;3.28;;;31.40;34.30;;;;;;5011721;28;20096;-69
2021/05/31 11:37:51;;;;;;;2.75;2.45;;;31.10;33.70;;;;;;5013035;28;20050;-68
2021/05/31 11:40:21;;;;;;;2.90;2.60;;;31.40;35.80;;;;;;5013211;28;20078;-71
2021/05/31 11:42:48;;;;;;;3.22;2.92;;;31.70;36.10;;;;;;5013083;28;20164;-67
2021/05/31 11:45:18;;;;;;;2.55;2.35;;;31.90;35.60;;;;;;5010875;28;20492;-71
2021/05/31 11:47:44;;;;;;;6.70;4.67;;;32.00;35.20;;;;;;5012884;28;20046;-72
2021/05/31 11:50:17;;;;;;;2.13;1.92;;;31.70;33.90;;;;;;5012162;28;20046;-68
2021/05/31 11:52:44;;;;;;;4.43;3.47;;;31.40;33.90;;;;;;5012899;28;20100;-70
2021/05/31 11:55:19;;;;;;;9.05;4.88;;;31.40;35.60;;;;;;5007109;28;20082;-70
2021/05/31 11:57:45;;;;;;;1.77;1.50;;;31.20;37.80;;;;;;4993735;28;20042;-70
2021/05/31 12:00:18;;;;;;;12.30;8.75;;;30.80;37.30;;;;;;5004562;28;20045;-70
2021/05/31 12:02:44;;;;;;;2.83;2.50;;;31.50;37.90;;;;;;5013012;28;20042;-69
2021/05/31 12:05:12;;;;;;;5.15;2.88;;;31.40;34.80;;;;;;5012310;28;20045;-68
2021/05/31 12:07:42;;;;;;;6.32;4.57;;;31.90;34.70;;;;;;5011390;28;20111;-71
2021/05/31 12:10:09;;;;;;;4.05;3.55;;;32.20;35.70;;;;;;4993463;28;20050;-69
2021/05/31 12:12:35;;;;;;;6.65;5.03;;;32.20;36.20;;;;;;4993401;28;20117;-69
2021/05/31 12:15:02;;;;;;;4.03;3.42;;;32.30;36.50;;;;;;5003479;28;20045;-71
2021/05/31 12:17:30;;;;;;;3.05;1.75;;;32.10;36.70;;;;;;5012163;28;20053;-68
2021/05/31 12:19:56;;;;;;;5.38;4.00;;;32.00;37.00;;;;;;5012348;28;20473;-71
2021/05/31 12:22:25;;;;;;;6.07;5.38;;;31.30;35.90;;;;;;5012248;28;20042;-70
2021/05/31 12:24:53;;;;;;;4.00;3.20;;;31.20;37.70;;;;;;5010708;28;20088;-69
2021/05/31 12:27:28;;;;;;;6.45;4.45;;;31.00;38.20;;;;;;5011652;28;20046;-74
2021/05/31 12:29:57;;;;;;;8.57;6.65;;;31.70;38.10;;;;;;5013783;28;20049;-75
2021/05/31 12:32:29;;;;;;;7.25;5.00;;;32.00;36.40;;;;;;5009261;28;20120;-74
2021/05/31 12:35:00;;;;;;;4.10;2.85;;;32.10;36.20;;;;;;5013404;28;20042;-74
2021/05/31 12:37:47;;;;;;;5.45;4.03;;;31.50;36.60;;;;;;5013073;28;20076;-74
2021/05/31 12:40:14;;;;;;;4.03;3.42;;;31.50;38.40;;;;;;5013513;28;20045;-75
2021/05/31 12:42:42;;;;;;;4.95;3.38;;;31.10;37.20;;;;;;5013372;28;20042;-73
2021/05/31 12:45:15;;;;;;;6.18;4.78;;;30.80;36.60;;;;;;5013006;28;20544;-74
2021/05/31 12:47:58;;;;;;;5.40;4.55;;;30.70;38.90;;;;;;5006803;28;20046;-74
2021/05/31 12:50:38;;;;;;;3.58;2.53;;;30.70;39.40;;;;;;4993669;28;20061;-74
2021/05/31 12:53:05;;;;;;;2.63;1.83;;;30.70;38.70;;;;;;4993364;28;20046;-75
2021/05/31 12:55:33;;;;;;;2.85;2.30;;;30.90;35.70;;;;;;5002959;28;20042;-73
2021/05/31 12:58:00;;;;;;;2.83;2.33;;;30.50;37.10;;;;;;5012612;28;20196;-74
2021/05/31 13:00:30;;;;;;;5.20;3.70;;;30.60;36.90;;;;;;5012630;28;20100;-74
2021/05/31 13:03:10;;;;;;;10.07;5.40;;;30.70;37.30;;;;;;5015204;28;20046;-74
2021/05/31 13:05:39;;;;;;;6.60;5.90;;;31.00;38.10;;;;;;5016738;28;20050;-74
2021/05/31 13:08:08;;;;;;;2.35;2.15;;;30.70;37.20;;;;;;5016737;28;20513;-74